Time;durP1;ratioP1;P1;durP2;ratioP2;P2;SDS_P1;SDS_P2;PMS_P1;PMS_P2;Temp;Humidity;BMP_temperature;BMP_pressure;BME280_temperature;BME280_humidity;BME280_pressure;Samples;Min_cycle;Max_cycle;Signal;HPM_P1;HPM_P2
2024/01/26 00:01:58;;;;;;;2.55;2.28;;;;;;;27.05;39.45;102227.19;5083184;28;20020;-42
2024/01/26 00:04:23;;;;;;;3.58;2.13;;;;;;;27.10;39.29;102217.91;5047924;28;20040;-42
2024/01/26 00:06:48;;;;;;;2.40;2.13;;;;;;;27.08;39.34;102214.63;5078951;28;20019;-41
2024/01/26 00:09:15;;;;;;;2.15;1.95;;;;;;;27.04;39.38;102200.50;5074040;28;20106;-44
2024/01/26 00:11:41;;;;;;;2.85;2.05;;;;;;;26.96;39.41;102198.44;5070140;28;20028;-42
2024/01/26 00:14:10;;;;;;;2.58;2.33;;;;;;;26.89;39.43;102199.66;5068768;28;20016;-42
2024/01/26 00:16:37;;;;;;;2.42;1.98;;;;;;;26.82;39.72;102206.72;5082730;28;20028;-42
2024/01/26 00:19:03;;;;;;;1.98;1.80;;;;;;;26.77;39.59;102206.81;5071859;28;20024;-42
2024/01/26 00:21:29;;;;;;;2.75;1.90;;;;;;;26.76;39.61;102200.44;5073726;28;20020;-44
2024/01/26 00:23:54;;;;;;;2.08;1.63;;;;;;;26.74;39.54;102197.97;5054372;28;20521;-42
2024/01/26 00:26:20;;;;;;;1.80;1.60;;;;;;;26.70;39.47;102194.09;5075124;28;20092;-42
2024/01/26 00:28:45;;;;;;;3.20;2.03;;;;;;;26.63;39.74;102192.84;5060206;28;20027;-42
2024/01/26 00:31:18;;;;;;;2.45;1.92;;;;;;;26.65;39.67;102182.25;5067988;28;20033;-43
2024/01/26 00:33:43;;;;;;;2.90;1.95;;;;;;;26.61;39.99;102190.38;5065209;28;20028;-48
2024/01/26 00:36:09;;;;;;;1.92;1.60;;;;;;;26.70;39.98;102199.66;5078579;28;20428;-45
2024/01/26 00:38:35;;;;;;;2.63;2.00;;;;;;;26.68;39.89;102203.88;5075640;28;20031;-42
2024/01/26 00:41:00;;;;;;;3.25;2.10;;;;;;;26.62;40.15;102193.97;5064720;28;20105;-43
2024/01/26 00:43:25;;;;;;;2.33;1.77;;;;;;;26.58;40.19;102193.75;5082171;28;20032;-43
2024/01/26 00:45:51;;;;;;;3.38;1.80;;;;;;;26.67;39.93;102185.53;5077919;28;20016;-45
2024/01/26 00:48:16;;;;;;;3.40;1.75;;;;;;;26.59;40.21;102184.28;5075793;28;20397;-42
2024/01/26 00:50:42;;;;;;;1.85;1.70;;;;;;;26.62;40.28;102185.63;5067634;28;20028;-43
2024/01/26 00:53:08;;;;;;;3.95;1.90;;;;;;;26.61;40.30;102179.25;5074326;28;20024;-42
2024/01/26 00:55:33;;;;;;;2.47;1.90;;;;;;;26.62;40.11;102178.09;5071552;28;20411;-42
2024/01/26 00:57:59;;;;;;;2.30;1.90;;;;;;;26.52;40.20;102176.31;5069166;28;20036;-43
2024/01/26 01:00:25;;;;;;;3.38;1.98;;;;;;;26.48;40.50;102163.38;5082758;28;20035;-43
2024/01/26 01:02:51;;;;;;;2.47;1.80;;;;;;;26.51;40.60;102165.53;5080044;28;20024;-43
2024/01/26 01:05:17;;;;;;;2.78;1.83;;;;;;;26.46;40.44;102146.97;5075938;28;20420;-40
2024/01/26 01:07:42;;;;;;;2.88;1.67;;;;;;;26.50;40.49;102153.59;5076194;28;20741;-44
2024/01/26 01:10:10;;;;;;;2.90;1.80;;;;;;;26.54;40.40;102151.03;5076606;28;20021;-42
2024/01/26 01:12:38;;;;;;;1.92;1.73;;;;;;;26.54;40.46;102135.16;5081835;28;20031;-42
2024/01/26 01:15:04;;;;;;;2.50;1.60;;;;;;;26.57;40.35;102129.00;5083415;28;20058;-43
2024/01/26 01:17:29;;;;;;;1.95;1.60;;;;;;;26.59;40.20;102132.28;5069839;28;20186;-44
2024/01/26 01:19:55;;;;;;;3.20;1.58;;;;;;;26.55;40.31;102122.09;5065074;28;20028;-43
2024/01/26 01:22:21;;;;;;;3.63;1.52;;;;;;;26.55;40.32;102133.22;5085722;28;20556;-45
2024/01/26 01:24:46;;;;;;;3.42;1.90;;;;;;;26.52;40.55;102131.03;5078793;28;20075;-42
2024/01/26 01:27:12;;;;;;;1.63;1.50;;;;;;;26.51;40.31;102121.03;5085998;28;20106;-42
2024/01/26 01:29:37;;;;;;;1.88;1.52;;;;;;;26.47;40.62;102117.25;5071451;28;20363;-44
2024/01/26 01:32:03;;;;;;;4.47;1.65;;;;;;;26.51;40.37;102115.50;5071923;28;20033;-43
2024/01/26 01:34:29;;;;;;;1.48;1.30;;;;;;;26.46;40.55;102118.34;5053310;28;20069;-42
2024/01/26 01:36:54;;;;;;;3.55;1.63;;;;;;;26.58;40.48;102118.69;5058748;28;20024;-44
2024/01/26 01:39:20;;;;;;;1.40;1.30;;;;;;;26.55;40.30;102128.47;5077889;28;20377;-43
2024/01/26 01:41:49;;;;;;;2.05;1.70;;;;;;;26.61;40.41;102126.44;5087581;28;20069;-43
2024/01/26 01:44:15;;;;;;;1.88;1.50;;;;;;;26.56;40.39;102118.16;5076592;28;20024;-44
2024/01/26 01:46:40;;;;;;;1.77;1.50;;;;;;;26.62;40.28;102113.34;5081250;28;20039;-43
2024/01/26 01:49:06;;;;;;;1.88;1.50;;;;;;;26.61;40.27;102109.75;5079057;28;20024;-42
2024/01/26 01:51:35;;;;;;;3.65;1.50;;;;;;;26.65;39.98;102105.22;5081159;28;20044;-42
2024/01/26 01:54:01;;;;;;;2.03;1.48;;;;;;;26.54;40.56;102104.59;5086272;28;20054;-42
2024/01/26 01:56:28;;;;;;;2.83;1.50;;;;;;;26.53;40.59;102085.44;5059773;28;20032;-42
2024/01/26 01:58:53;;;;;;;1.55;1.40;;;;;;;26.55;40.58;102077.63;5057715;28;20047;-45
2024/01/26 02:01:19;;;;;;;2.00;1.30;;;;;;;26.49;40.70;102073.28;5077926;28;20241;-43
2024/01/26 02:03:44;;;;;;;2.20;1.40;;;;;;;26.53;40.56;102077.09;5081448;28;20280;-45
2024/01/26 02:06:10;;;;;;;2.53;1.23;;;;;;;26.51;40.77;102057.97;5062993;28;20031;-41
2024/01/26 02:08:35;;;;;;;1.45;1.35;;;;;;;26.49;40.54;102059.41;5080397;28;20306;-44
2024/01/26 02:11:00;;;;;;;2.10;1.50;;;;;;;26.51;40.75;102054.34;5084722;28;20038;-45
2024/01/26 02:13:26;;;;;;;1.80;1.40;;;;;;;26.45;40.66;102056.41;5079583;28;20354;-44
2024/01/26 02:15:51;;;;;;;2.22;1.48;;;;;;;26.52;40.59;102056.00;5078017;28;20813;-42
2024/01/26 02:18:16;;;;;;;3.97;1.60;;;;;;;26.50;40.84;102045.19;5083366;28;20111;-41
2024/01/26 02:20:42;;;;;;;4.85;1.60;;;;;;;26.48;40.69;102035.50;5061578;28;20028;-43
2024/01/26 02:23:07;;;;;;;1.50;1.30;;;;;;;26.52;40.62;102034.56;5077054;28;20393;-41
2024/01/26 02:25:33;;;;;;;1.92;1.33;;;;;;;26.56;40.59;102032.00;5070638;28;20048;-42
2024/01/26 02:27:58;;;;;;;1.38;1.20;;;;;;;26.52;40.53;102026.22;5077341;28;20028;-44
2024/01/26 02:30:24;;;;;;;2.58;1.40;;;;;;;26.57;40.39;102037.28;5080911;28;20575;-43
2024/01/26 02:32:49;;;;;;;2.55;1.55;;;;;;;26.52;40.78;102036.53;5085873;28;20135;-42
2024/01/26 02:35:14;;;;;;;2.42;1.48;;;;;;;26.51;40.70;102041.28;5058532;28;20249;-42
2024/01/26 02:37:40;;;;;;;2.38;1.50;;;;;;;26.63;40.49;102037.16;5081065;28;20458;-46
2024/01/26 02:40:06;;;;;;;1.98;1.45;;;;;;;26.58;40.35;102029.75;5082781;28;20055;-42
2024/01/26 02:42:31;;;;;;;1.63;1.13;;;;;;;26.56;40.46;102018.94;5081950;28;20036;-42
2024/01/26 02:44:57;;;;;;;1.95;1.40;;;;;;;26.55;40.61;102006.16;5080509;28;20151;-44
2024/01/26 02:47:22;;;;;;;4.75;1.98;;;;;;;26.51;40.67;102010.69;5072167;28;20031;-40
2024/01/26 02:49:48;;;;;;;2.65;1.45;;;;;;;26.53;40.52;101999.25;5072201;28;20474;-41
2024/01/26 02:52:13;;;;;;;2.20;1.40;;;;;;;26.51;40.75;101996.81;5082890;28;20024;-45
2024/01/26 02:54:38;;;;;;;3.47;1.60;;;;;;;26.43;41.13;101995.53;5073296;28;20024;-44
2024/01/26 02:57:04;;;;;;;2.13;1.50;;;;;;;26.49;40.66;102001.03;5067059;28;20107;-42
2024/01/26 02:59:29;;;;;;;5.65;1.50;;;;;;;26.66;40.61;101989.28;5069520;28;20040;-42
2024/01/26 03:01:55;;;;;;;3.00;1.48;;;;;;;26.83;40.28;101983.13;5077496;28;20377;-42
2024/01/26 03:04:20;;;;;;;1.85;1.40;;;;;;;26.89;40.10;101968.81;5075985;28;20039;-43
2024/01/26 03:06:46;;;;;;;2.95;1.67;;;;;;;26.89;40.03;101973.53;5079581;28;20492;-43
2024/01/26 03:09:11;;;;;;;2.47;1.75;;;;;;;26.86;40.32;101966.63;5068077;28;20032;-41
2024/01/26 03:11:38;;;;;;;2.58;1.80;;;;;;;26.81;40.54;101965.94;5084485;28;20034;-44
2024/01/26 03:14:05;;;;;;;2.17;1.58;;;;;;;26.74;40.30;101958.84;5051443;28;20107;-42
2024/01/26 03:16:32;;;;;;;2.75;1.60;;;;;;;26.67;40.73;101952.00;5058283;28;20143;-42
2024/01/26 03:18:58;;;;;;;2.42;1.90;;;;;;;26.74;40.50;101969.97;5066060;28;20499;-42
2024/01/26 03:21:23;;;;;;;3.60;1.90;;;;;;;26.70;40.39;101960.53;5071622;28;20032;-43
2024/01/26 03:23:48;;;;;;;3.58;2.10;;;;;;;26.69;40.90;101956.09;5070780;28;20039;-41
2024/01/26 03:26:14;;;;;;;3.85;1.83;;;;;;;26.56;40.79;101945.81;5065784;28;20099;-41
2024/01/26 03:28:39;;;;;;;4.30;1.80;;;;;;;26.56;40.81;101945.81;5081971;28;20027;-43
2024/01/26 03:31:05;;;;;;;3.65;1.73;;;;;;;26.57;40.70;101934.41;5078029;28;20035;-41
2024/01/26 03:33:31;;;;;;;2.10;1.55;;;;;;;26.57;40.76;101942.75;5075424;28;20029;-42
2024/01/26 03:35:56;;;;;;;2.63;1.77;;;;;;;26.57;40.60;101947.47;5083792;28;20516;-42
2024/01/26 03:38:21;;;;;;;4.65;1.92;;;;;;;26.59;40.50;101939.66;5078673;28;20116;-43
2024/01/26 03:40:47;;;;;;;2.47;1.80;;;;;;;26.62;40.50;101936.25;5077807;28;20023;-45
2024/01/26 03:43:12;;;;;;;1.65;1.55;;;;;;;26.70;40.54;101937.50;5076594;28;20408;-45
2024/01/26 03:45:37;;;;;;;4.45;2.20;;;;;;;26.52;40.77;101934.50;5067773;28;20115;-41
2024/01/26 03:48:03;;;;;;;2.47;1.90;;;;;;;26.55;40.51;101928.34;5059288;28;20478;-45
2024/01/26 03:50:29;;;;;;;2.35;1.88;;;;;;;26.52;40.89;101906.69;5073477;28;20028;-41
2024/01/26 03:52:54;;;;;;;3.83;2.00;;;;;;;26.47;40.78;101904.03;5082995;28;20541;-42
2024/01/26 03:55:19;;;;;;;4.38;1.90;;;;;;;26.46;40.73;101910.72;5075521;28;20779;-41
2024/01/26 03:57:45;;;;;;;2.72;2.20;;;;;;;26.47;41.10;101911.56;5079549;28;20064;-42
2024/01/26 04:00:10;;;;;;;2.88;2.05;;;;;;;26.54;41.03;101898.06;5075324;28;20107;-42
2024/01/26 04:02:36;;;;;;;3.78;2.10;;;;;;;26.54;40.80;101881.41;5083134;28;20047;-43
2024/01/26 04:05:02;;;;;;;3.97;1.98;;;;;;;26.55;41.14;101871.94;5070945;28;20369;-45
2024/01/26 04:07:27;;;;;;;3.42;2.30;;;;;;;26.51;40.94;101868.09;5072658;28;20302;-43
2024/01/26 04:09:53;;;;;;;4.25;2.35;;;;;;;26.54;40.96;101867.50;5078350;28;20099;-44
2024/01/26 04:12:19;;;;;;;2.47;1.95;;;;;;;26.49;41.28;101859.28;5083660;28;20102;-44
2024/01/26 04:14:44;;;;;;;3.15;2.13;;;;;;;26.53;40.93;101854.72;5075464;28;20020;-42
2024/01/26 04:17:10;;;;;;;2.55;1.98;;;;;;;26.46;41.29;101855.13;5076747;28;20047;-42
2024/01/26 04:19:35;;;;;;;2.42;2.00;;;;;;;26.46;40.90;101854.31;5074666;28;20029;-47
2024/01/26 04:22:00;;;;;;;5.88;2.05;;;;;;;26.47;41.14;101847.63;5070933;28;20090;-42
2024/01/26 04:24:26;;;;;;;5.13;2.22;;;;;;;26.42;41.06;101857.75;5081201;28;20066;-43
2024/01/26 04:26:52;;;;;;;2.63;2.10;;;;;;;26.38;41.09;101855.88;5076096;28;20500;-45
2024/01/26 04:29:17;;;;;;;4.20;2.33;;;;;;;26.39;41.34;101843.66;5049604;28;20040;-43
2024/01/26 04:31:43;;;;;;;5.72;2.40;;;;;;;26.39;41.48;101836.13;5074424;28;20431;-45
2024/01/26 04:34:08;;;;;;;4.20;2.30;;;;;;;26.40;41.21;101834.97;5078610;28;20042;-46
2024/01/26 04:36:34;;;;;;;2.95;1.95;;;;;;;26.43;41.21;101834.34;5079632;28;20024;-43
2024/01/26 04:39:01;;;;;;;3.83;2.45;;;;;;;26.45;41.17;101833.22;5055278;28;20125;-41
2024/01/26 04:41:26;;;;;;;3.65;2.53;;;;;;;26.38;41.58;101831.69;5071780;28;20042;-44
2024/01/26 04:43:52;;;;;;;3.72;2.20;;;;;;;26.41;41.34;101830.25;5056578;28;20020;-44
2024/01/26 04:46:17;;;;;;;3.80;2.30;;;;;;;26.34;41.53;101830.69;5074038;28;20043;-43
2024/01/26 04:48:43;;;;;;;3.13;2.55;;;;;;;26.47;41.60;101830.97;5077734;28;20032;-42
2024/01/26 04:51:08;;;;;;;3.13;2.10;;;;;;;26.36;41.46;101816.47;5081343;28;20450;-44
2024/01/26 04:53:34;;;;;;;3.00;2.15;;;;;;;26.41;41.56;101810.78;5083051;28;20032;-43
2024/01/26 04:55:59;;;;;;;5.22;2.42;;;;;;;26.46;41.30;101807.88;5079584;28;20024;-44
2024/01/26 04:58:25;;;;;;;4.82;2.30;;;;;;;26.43;41.50;101805.75;5078547;28;20047;-43
2024/01/26 05:00:50;;;;;;;4.07;2.00;;;;;;;26.36;41.71;101799.78;5075199;28;20048;-44
2024/01/26 05:03:16;;;;;;;3.75;2.28;;;;;;;26.37;41.54;101796.69;5081921;28;20522;-43
2024/01/26 05:05:41;;;;;;;4.30;2.20;;;;;;;26.32;41.41;101784.88;5066843;28;20075;-42
2024/01/26 05:08:06;;;;;;;2.28;1.95;;;;;;;26.36;41.33;101788.66;5070752;28;20020;-45
2024/01/26 05:10:32;;;;;;;3.60;2.20;;;;;;;26.46;41.43;101780.09;5071793;28;20064;-42
2024/01/26 05:12:57;;;;;;;4.65;2.17;;;;;;;26.54;41.35;101773.78;5080782;28;20081;-43
2024/01/26 05:15:23;;;;;;;4.10;2.72;;;;;;;26.46;41.39;101768.97;5072783;28;20476;-41
2024/01/26 05:17:48;;;;;;;2.85;1.92;;;;;;;26.52;41.29;101772.47;5081144;28;20016;-46
2024/01/26 05:20:13;;;;;;;3.47;2.10;;;;;;;26.54;41.19;101773.78;5054637;28;20037;-42
2024/01/26 05:22:39;;;;;;;5.63;2.05;;;;;;;26.55;41.24;101769.88;5074209;28;20032;-41
2024/01/26 05:25:05;;;;;;;3.45;2.00;;;;;;;26.66;41.13;101766.84;5060803;28;20119;-42
2024/01/26 05:27:30;;;;;;;3.67;2.03;;;;;;;26.65;41.20;101768.81;5079630;28;20028;-42
2024/01/26 05:29:56;;;;;;;3.35;2.00;;;;;;;26.83;41.26;101769.00;5082054;28;20024;-41
2024/01/26 05:32:22;;;;;;;2.05;1.70;;;;;;;27.10;40.88;101761.66;5082162;28;20489;-45
2024/01/26 05:34:47;;;;;;;2.47;1.90;;;;;;;27.19;40.75;101752.22;5075781;28;20453;-42
2024/01/26 05:37:13;;;;;;;2.75;1.80;;;;;;;27.21;40.88;101763.03;5075395;28;20036;-41
2024/01/26 05:39:38;;;;;;;3.05;2.05;;;;;;;27.28;40.94;101770.94;5086497;28;20027;-41
2024/01/26 05:42:04;;;;;;;4.35;1.90;;;;;;;27.38;40.86;101760.34;5086632;28;20030;-42
2024/01/26 05:44:29;;;;;;;2.45;1.70;;;;;;;27.47;40.75;101763.22;5076979;28;20027;-42
2024/01/26 05:46:55;;;;;;;2.35;2.00;;;;;;;27.48;40.74;101748.16;5070793;28;20418;-43
2024/01/26 05:49:20;;;;;;;4.35;2.00;;;;;;;27.50;40.90;101751.41;5050427;28;20568;-44
2024/01/26 05:51:46;;;;;;;2.22;1.75;;;;;;;27.49;40.78;101755.38;5067424;28;20344;-42
2024/01/26 05:54:14;;;;;;;2.90;1.98;;;;;;;27.44;40.97;101744.34;5086611;28;20027;-48
2024/01/26 05:56:40;;;;;;;3.42;1.73;;;;;;;27.35;41.17;101743.47;5083882;28;20501;-44
2024/01/26 05:59:06;;;;;;;2.60;1.80;;;;;;;27.37;41.13;101738.41;5067260;28;20109;-43
2024/01/26 06:01:31;;;;;;;2.53;2.00;;;;;;;27.29;41.46;101745.56;5079603;28;20087;-44
2024/01/26 06:03:57;;;;;;;2.42;1.70;;;;;;;27.32;41.30;101756.06;5077215;28;20035;-41
2024/01/26 06:06:22;;;;;;;2.67;2.00;;;;;;;27.34;41.20;101764.09;5071861;28;20051;-43
2024/01/26 06:08:48;;;;;;;2.38;1.77;;;;;;;27.29;41.51;101758.66;5068979;28;20089;-42
2024/01/26 06:11:14;;;;;;;2.80;1.83;;;;;;;27.31;41.41;101746.06;5071818;28;20481;-43
2024/01/26 06:13:39;;;;;;;3.28;2.08;;;;;;;27.26;41.49;101746.22;5078879;28;20035;-42
2024/01/26 06:16:05;;;;;;;2.20;1.70;;;;;;;27.21;41.58;101749.09;5075584;28;20433;-41
2024/01/26 06:18:31;;;;;;;2.08;1.73;;;;;;;27.14;41.77;101734.84;5076471;28;20036;-41
2024/01/26 06:20:56;;;;;;;2.83;1.67;;;;;;;27.13;41.70;101741.56;5078847;28;20532;-41
2024/01/26 06:23:21;;;;;;;1.92;1.70;;;;;;;27.09;41.73;101734.97;5079795;28;20075;-44
2024/01/26 06:25:47;;;;;;;3.13;2.00;;;;;;;27.06;41.92;101730.88;5082614;28;20048;-42
2024/01/26 06:28:12;;;;;;;5.32;2.05;;;;;;;26.97;42.13;101736.38;5078477;28;20097;-41
2024/01/26 06:30:38;;;;;;;2.50;2.20;;;;;;;26.96;42.07;101733.91;5069093;28;20032;-42
2024/01/26 06:33:03;;;;;;;3.40;1.80;;;;;;;26.94;41.93;101734.25;5066954;28;20520;-46
2024/01/26 06:35:29;;;;;;;4.20;2.00;;;;;;;26.92;42.06;101744.84;5078977;28;20242;-44
2024/01/26 06:37:54;;;;;;;4.57;2.00;;;;;;;26.86;42.20;101746.13;5082375;28;20547;-43
2024/01/26 06:40:19;;;;;;;2.92;2.13;;;;;;;26.85;42.33;101753.63;5064257;28;20039;-42
2024/01/26 06:42:45;;;;;;;2.42;2.05;;;;;;;26.86;42.39;101763.63;5083320;28;21286;-42
2024/01/26 06:45:12;;;;;;;2.38;2.00;;;;;;;26.84;42.40;101757.56;5083939;28;20032;-45
2024/01/26 06:47:37;;;;;;;2.92;2.00;;;;;;;26.85;42.42;101764.75;5075256;28;20034;-43
2024/01/26 06:50:04;;;;;;;2.75;1.83;;;;;;;26.85;42.46;101739.72;5072706;28;20404;-44
2024/01/26 06:52:29;;;;;;;4.50;1.90;;;;;;;26.81;42.44;101749.03;5075592;28;20514;-42
2024/01/26 06:54:55;;;;;;;2.42;1.90;;;;;;;26.86;42.23;101749.72;5059419;28;20122;-43
2024/01/26 06:57:20;;;;;;;2.58;1.95;;;;;;;26.79;42.72;101756.88;5055965;28;20044;-44
2024/01/26 06:59:46;;;;;;;5.47;2.13;;;;;;;26.79;42.90;101763.22;5080365;28;20020;-43
2024/01/26 07:02:11;;;;;;;2.65;1.90;;;;;;;26.71;43.02;101775.91;5078312;28;20510;-44
2024/01/26 07:04:37;;;;;;;1.80;1.60;;;;;;;26.73;42.83;101778.38;5075694;28;20036;-42
2024/01/26 07:07:03;;;;;;;3.47;1.60;;;;;;;26.74;42.83;101775.31;5049808;28;20021;-42
2024/01/26 07:09:28;;;;;;;3.22;1.90;;;;;;;26.75;43.33;101759.44;5080340;28;20490;-43
2024/01/26 07:11:54;;;;;;;5.47;1.75;;;;;;;26.71;43.17;101770.34;5066154;28;20029;-41
2024/01/26 07:14:19;;;;;;;3.58;1.80;;;;;;;26.73;42.85;101761.69;5077770;28;20124;-41
2024/01/26 07:16:46;;;;;;;1.90;1.70;;;;;;;26.75;43.08;101765.81;5079169;28;20028;-44
2024/01/26 07:19:11;;;;;;;1.50;1.35;;;;;;;26.76;42.91;101763.88;5055449;28;20028;-43
2024/01/26 07:21:37;;;;;;;2.95;1.75;;;;;;;26.88;43.24;101772.47;5076057;28;20471;-41
2024/01/26 07:24:02;;;;;;;4.22;1.75;;;;;;;26.74;43.21;101768.91;5079971;28;20146;-41
2024/01/26 07:26:28;;;;;;;1.80;1.60;;;;;;;26.72;43.29;101777.56;5082800;28;20031;-41
2024/01/26 07:28:53;;;;;;;4.47;1.77;;;;;;;26.75;43.12;101765.81;5073007;28;20381;-43
2024/01/26 07:31:18;;;;;;;3.22;1.85;;;;;;;26.66;43.24;101777.97;5081219;28;20789;-43
2024/01/26 07:33:44;;;;;;;1.92;1.60;;;;;;;26.67;42.97;101774.91;5065539;28;20021;-41
2024/01/26 07:36:10;;;;;;;4.40;1.80;;;;;;;26.70;43.20;101782.59;5081397;28;20024;-42
2024/01/26 07:38:35;;;;;;;4.30;1.83;;;;;;;26.65;43.31;101791.06;5081317;28;20409;-43
2024/01/26 07:41:00;;;;;;;2.67;1.60;;;;;;;26.68;43.32;101787.69;5079797;28;20059;-42
2024/01/26 07:43:26;;;;;;;4.20;1.98;;;;;;;26.68;43.09;101784.91;5077191;28;20023;-41
2024/01/26 07:45:51;;;;;;;4.85;1.75;;;;;;;26.63;43.30;101779.44;5077703;28;20036;-44
2024/01/26 07:48:17;;;;;;;3.65;1.83;;;;;;;26.66;42.87;101801.06;5066860;28;20020;-44
2024/01/26 07:50:42;;;;;;;6.65;2.15;;;;;;;26.65;43.05;101782.72;5078956;28;20024;-42
2024/01/26 07:53:08;;;;;;;4.25;1.90;;;;;;;26.71;43.12;101795.38;5078823;28;20051;-41
2024/01/26 07:55:34;;;;;;;4.90;1.80;;;;;;;26.61;43.33;101795.63;5079123;28;20024;-44
2024/01/26 07:58:00;;;;;;;3.33;1.90;;;;;;;26.60;43.44;101799.53;5065695;28;20036;-44
2024/01/26 08:00:25;;;;;;;4.22;1.92;;;;;;;26.61;43.39;101797.56;5076774;28;20115;-41
2024/01/26 08:02:51;;;;;;;6.30;2.55;;;;;;;26.55;43.49;101811.59;5077951;28;20028;-43
2024/01/26 08:05:16;;;;;;;6.78;2.20;;;;;;;26.67;43.17;101816.59;5074084;28;20137;-42
2024/01/26 08:07:41;;;;;;;5.15;1.90;;;;;;;26.75;43.41;101826.19;5063646;28;20024;-41
2024/01/26 08:10:09;;;;;;;6.68;2.22;;;;;;;26.75;43.22;101815.06;5083093;28;20027;-43
2024/01/26 08:12:35;;;;;;;6.72;1.92;;;;;;;26.65;43.17;101818.06;5077815;28;20074;-42
2024/01/26 08:15:00;;;;;;;4.15;2.05;;;;;;;26.73;43.26;101837.59;5083603;28;20032;-43
2024/01/26 08:17:26;;;;;;;5.65;2.30;;;;;;;26.84;43.01;101834.59;5064086;28;20087;-43
2024/01/26 08:19:51;;;;;;;6.10;2.20;;;;;;;26.90;42.98;101844.47;5077467;28;20085;-44
2024/01/26 08:22:16;;;;;;;5.30;2.03;;;;;;;26.98;42.69;101849.28;5073454;28;20032;-41
2024/01/26 08:24:42;;;;;;;6.90;2.28;;;;;;;26.73;43.04;101848.72;5080313;28;20485;-43
2024/01/26 08:27:08;;;;;;;7.85;2.65;;;;;;;26.60;43.13;101849.56;5077615;28;20343;-43
2024/01/26 08:29:33;;;;;;;9.38;2.90;;;;;;;26.64;43.06;101872.00;5072630;28;20036;-47
2024/01/26 08:31:59;;;;;;;6.95;2.20;;;;;;;26.62;43.04;101902.06;5082461;28;20290;-44
2024/01/26 08:34:24;;;;;;;6.88;2.70;;;;;;;26.63;42.91;101912.06;5082483;28;20051;-44
2024/01/26 08:36:49;;;;;;;7.43;2.58;;;;;;;26.67;42.90;101922.25;5077614;28;20039;-43
2024/01/26 08:39:15;;;;;;;7.25;2.35;;;;;;;26.70;42.72;101920.81;5083293;28;20537;-45
2024/01/26 08:41:43;;;;;;;3.70;2.10;;;;;;;26.77;42.73;101925.97;5080016;28;20027;-43
2024/01/26 08:44:10;;;;;;;4.72;2.20;;;;;;;26.84;42.42;101929.16;5082603;28;20020;-43
2024/01/26 08:46:35;;;;;;;6.65;2.50;;;;;;;26.90;42.28;101951.00;5082498;28;20028;-41
2024/01/26 08:49:00;;;;;;;7.28;2.55;;;;;;;26.90;42.28;101956.56;5077738;28;20089;-41
2024/01/26 08:51:26;;;;;;;5.60;2.75;;;;;;;26.87;42.21;101962.72;5064200;28;20105;-45
2024/01/26 08:53:51;;;;;;;7.15;2.65;;;;;;;26.93;42.11;101969.00;5079655;28;20500;-42
2024/01/26 08:56:16;;;;;;;5.85;2.17;;;;;;;27.02;41.98;101983.81;5083016;28;20035;-44
2024/01/26 08:58:42;;;;;;;5.90;2.33;;;;;;;27.22;41.63;101990.91;5068220;28;20663;-42
2024/01/26 09:01:08;;;;;;;6.40;2.50;;;;;;;27.24;41.64;102007.28;5079677;28;20447;-45
2024/01/26 09:03:34;;;;;;;7.78;2.88;;;;;;;27.33;41.25;102004.56;5081702;28;20507;-43
2024/01/26 09:05:59;;;;;;;4.95;2.10;;;;;;;27.34;41.00;101990.31;5077109;28;20032;-42
2024/01/26 09:08:25;;;;;;;8.63;3.20;;;;;;;27.35;41.07;101989.19;5061978;28;20032;-42
2024/01/26 09:10:50;;;;;;;4.50;2.30;;;;;;;27.37;41.00;101977.78;5077596;28;20550;-41
2024/01/26 09:13:16;;;;;;;6.20;2.70;;;;;;;27.36;41.10;102007.53;5083842;28;20031;-42
2024/01/26 09:15:41;;;;;;;7.00;2.15;;;;;;;27.41;40.60;102025.28;5086389;28;20119;-42
2024/01/26 09:18:07;;;;;;;4.40;2.10;;;;;;;27.37;40.74;102039.00;5065123;28;20032;-42
2024/01/26 09:20:32;;;;;;;6.82;2.85;;;;;;;27.34;40.58;102037.63;5084291;28;20373;-41
2024/01/26 09:22:58;;;;;;;8.35;2.85;;;;;;;27.44;40.60;102047.75;5080256;28;20109;-45
2024/01/26 09:25:23;;;;;;;6.30;2.28;;;;;;;27.38;40.72;102057.31;5080796;28;20031;-43
2024/01/26 09:27:48;;;;;;;6.03;2.55;;;;;;;27.27;40.63;102062.31;5072774;28;20028;-41
2024/01/26 09:30:14;;;;;;;7.30;2.40;;;;;;;27.29;40.63;102073.13;5067752;28;20404;-46
2024/01/26 09:32:39;;;;;;;6.50;2.28;;;;;;;27.32;40.48;102091.97;5082861;28;20081;-43
2024/01/26 09:35:06;;;;;;;7.47;2.22;;;;;;;27.31;40.54;102109.81;5085979;28;20024;-45
2024/01/26 09:37:31;;;;;;;7.53;2.65;;;;;;;27.34;40.39;102110.00;5074099;28;20029;-42
2024/01/26 09:39:57;;;;;;;5.20;2.30;;;;;;;27.29;40.28;102143.53;5068473;28;20028;-42
2024/01/26 09:42:23;;;;;;;6.70;2.38;;;;;;;27.24;40.18;102154.75;5073935;28;20665;-41
2024/01/26 09:44:48;;;;;;;4.45;2.08;;;;;;;27.34;40.22;102132.28;5066146;28;20032;-42
2024/01/26 09:47:17;;;;;;;5.63;2.08;;;;;;;27.10;40.29;102151.97;5082364;28;20024;-42
2024/01/26 09:49:52;;;;;;;5.60;2.25;;;;;;;27.03;40.34;102171.84;5080682;28;20058;-41
2024/01/26 09:52:17;;;;;;;7.55;2.67;;;;;;;27.08;40.64;102178.47;5081692;28;20028;-46
2024/01/26 09:54:45;;;;;;;7.55;2.47;;;;;;;27.09;40.27;102200.41;5058243;28;20503;-42
2024/01/26 09:57:11;;;;;;;8.88;2.63;;;;;;;27.13;40.22;102207.00;5084460;28;20324;-44
2024/01/26 09:59:37;;;;;;;14.88;2.63;;;;;;;27.23;39.94;102206.81;5081290;28;20124;-41
2024/01/26 10:02:03;;;;;;;7.00;2.55;;;;;;;27.24;39.92;102215.97;5079242;28;20034;-42
2024/01/26 10:04:29;;;;;;;8.60;2.58;;;;;;;27.34;39.67;102224.13;5077678;28;20047;-43
2024/01/26 10:06:55;;;;;;;8.60;2.20;;;;;;;27.35;39.37;102242.47;5080856;28;20024;-43
2024/01/26 10:09:20;;;;;;;8.45;2.35;;;;;;;27.35;39.59;102233.31;5065735;28;20448;-43
2024/01/26 10:11:45;;;;;;;27.48;3.05;;;;;;;27.53;39.68;102251.09;5075976;28;20416;-44
2024/01/26 10:14:20;;;;;;;15.90;2.50;;;;;;;27.69;39.73;102257.19;5078011;28;20036;-45
2024/01/26 10:16:56;;;;;;;13.05;3.03;;;;;;;27.74;39.89;102278.50;5079179;28;20089;-48
2024/01/26 10:19:28;;;;;;;12.75;2.42;;;;;;;27.89;39.71;102277.38;5080622;28;20036;-50
2024/01/26 10:21:54;;;;;;;7.03;2.50;;;;;;;27.88;39.79;102281.31;5080693;28;20020;-47
2024/01/26 10:24:26;;;;;;;13.27;2.63;;;;;;;27.96;39.74;102300.09;5084766;28;20051;-49
2024/01/26 10:26:53;;;;;;;12.85;2.75;;;;;;;28.03;39.41;102309.66;5080260;28;20024;-51
2024/01/26 10:29:19;;;;;;;9.00;2.60;;;;;;;28.16;38.98;102319.16;5073352;28;20089;-45
2024/01/26 10:31:45;;;;;;;13.68;2.70;;;;;;;28.23;38.78;102309.53;5079931;28;20019;-43
2024/01/26 10:34:14;;;;;;;7.78;2.30;;;;;;;28.25;38.53;102318.44;5071844;28;20417;-44
2024/01/26 10:36:48;;;;;;;7.15;2.92;;;;;;;28.28;38.41;102338.13;5082437;28;20495;-46
2024/01/26 10:39:22;;;;;;;7.67;2.07;;;;;;;28.32;38.08;102335.56;5086151;28;20027;-46
2024/01/26 10:41:48;;;;;;;10.07;2.40;;;;;;;28.35;38.24;102357.22;5082883;28;20439;-44
2024/01/26 10:44:15;;;;;;;8.15;2.40;;;;;;;28.40;38.23;102357.13;5075100;28;20035;-46
2024/01/26 10:46:41;;;;;;;8.73;2.83;;;;;;;28.45;38.18;102365.38;5078174;28;20032;-43
2024/01/26 10:49:07;;;;;;;9.73;2.70;;;;;;;28.49;37.89;102377.53;5077681;28;20820;-44
2024/01/26 10:51:35;;;;;;;10.02;2.95;;;;;;;28.59;37.48;102370.91;5081639;28;20032;-45
2024/01/26 10:54:04;;;;;;;12.05;2.60;;;;;;;28.54;37.75;102393.34;5075876;28;20420;-43
2024/01/26 10:56:30;;;;;;;13.80;3.08;;;;;;;28.63;37.45;102393.41;5063007;28;20100;-42
2024/01/26 10:58:56;;;;;;;9.98;2.45;;;;;;;28.65;37.06;102396.72;5082167;28;20040;-43
2024/01/26 11:01:22;;;;;;;8.23;2.47;;;;;;;28.62;37.16;102395.41;5078421;28;20027;-41
2024/01/26 11:03:48;;;;;;;7.40;2.47;;;;;;;28.58;37.04;102415.84;5081201;28;20108;-46
2024/01/26 11:06:14;;;;;;;9.73;2.47;;;;;;;28.55;37.03;102411.72;5080527;28;20024;-43
2024/01/26 11:08:40;;;;;;;8.27;2.25;;;;;;;28.52;36.94;102419.88;5083602;28;20028;-45
2024/01/26 11:11:06;;;;;;;10.40;2.60;;;;;;;28.46;36.93;102422.78;5076258;28;20035;-42
2024/01/26 11:13:36;;;;;;;9.52;2.58;;;;;;;28.42;36.92;102430.13;5077113;28;20028;-45
2024/01/26 11:16:07;;;;;;;7.05;2.40;;;;;;;28.43;36.94;102445.72;5083094;28;20032;-44
2024/01/26 11:18:37;;;;;;;9.27;2.28;;;;;;;28.49;36.89;102465.97;5069952;28;20492;-47